Time;durP1;ratioP1;P1;durP2;ratioP2;P2;SDS_P1;SDS_P2;PMS_P1;PMS_P2;Temp;Humidity;BMP_temperature;BMP_pressure;BME280_temperature;BME280_humidity;BME280_pressure;Samples;Min_cycle;Max_cycle;Signal;HPM_P1;HPM_P2
2022/04/05 00:00:47;;;;;;;4.10;3.40;;;3.80;99.90;3.00;97456;;;;558662;253;24171;-82
2022/04/05 00:03:18;;;;;;;2.67;2.30;;;3.80;99.90;3.00;97447;;;;558817;253;24120;-82
2022/04/05 00:05:42;;;;;;;3.60;3.00;;;3.80;99.90;2.90;97454;;;;558221;253;24179;-81
2022/04/05 00:08:10;;;;;;;4.30;2.73;;;3.80;99.90;2.90;97445;;;;558580;253;24159;-81
2022/04/05 00:10:38;;;;;;;3.00;2.80;;;3.80;99.90;2.90;97451;;;;558500;253;24155;-81
2022/04/05 00:13:10;;;;;;;2.40;2.10;;;3.80;99.90;2.90;97445;;;;558880;253;24126;-82
2022/04/05 00:15:35;;;;;;;3.03;2.77;;;3.70;99.90;2.80;97437;;;;558431;253;24219;-86
2022/04/05 00:18:06;;;;;;;1.77;1.63;;;3.70;99.90;2.90;97441;;;;558849;253;24127;-83
2022/04/05 00:20:34;;;;;;;3.13;2.17;;;3.70;99.90;2.80;97444;;;;558643;253;24154;-83
2022/04/05 00:22:59;;;;;;;4.27;3.40;;;3.70;99.90;2.80;97447;;;;558650;253;24160;-84
2022/04/05 00:25:27;;;;;;;4.10;3.37;;;3.70;99.90;2.90;97457;;;;558697;253;24142;-82
2022/04/05 00:27:55;;;;;;;2.27;2.10;;;3.70;99.90;2.90;97451;;;;558500;253;24109;-85
2022/04/05 00:30:23;;;;;;;8.97;3.23;;;3.80;99.90;2.90;97456;;;;558799;253;24133;-84
2022/04/05 00:32:51;;;;;;;5.80;3.87;;;3.70;99.90;2.90;97468;;;;559049;253;24148;-81
2022/04/05 00:35:21;;;;;;;6.67;3.43;;;3.70;99.90;2.90;97456;;;;558937;253;24141;-83
2022/04/05 00:37:52;;;;;;;6.93;3.87;;;3.80;99.90;3.00;97459;;;;559144;253;25224;-82
2022/04/05 00:40:16;;;;;;;5.73;3.57;;;3.80;99.90;3.00;97461;;;;558869;253;24176;-85
2022/04/05 00:42:44;;;;;;;11.67;4.60;;;3.80;99.90;3.00;97463;;;;558743;253;24121;-86
2022/04/05 00:45:15;;;;;;;4.10;3.67;;;3.80;99.90;3.00;97454;;;;558571;253;24192;-85
2022/04/05 00:47:40;;;;;;;5.83;3.77;;;3.90;99.90;3.00;97458;;;;558701;253;24141;-84
2022/04/05 00:50:11;;;;;;;3.97;3.07;;;3.90;99.90;3.00;97471;;;;558643;253;24149;-85
2022/04/05 00:52:36;;;;;;;7.90;3.60;;;3.90;99.90;3.00;97451;;;;558361;253;24125;-82
2022/04/05 00:55:08;;;;;;;7.50;3.63;;;3.90;99.90;3.10;97464;;;;558686;253;24189;-87
2022/04/05 00:57:35;;;;;;;10.03;4.07;;;3.90;99.90;3.10;97462;;;;555228;253;24162;-81
2022/04/05 01:00:00;;;;;;;4.97;2.80;;;4.00;99.90;3.10;97461;;;;562250;251;24126;-82
2022/04/05 01:02:31;;;;;;;7.87;2.57;;;4.00;99.90;3.10;97473;;;;556712;253;24214;-84
2022/04/05 01:04:56;;;;;;;6.87;2.70;;;4.00;99.90;3.10;97473;;;;558214;254;24138;-82
2022/04/05 01:07:24;;;;;;;5.67;2.80;;;4.00;99.90;3.10;97474;;;;570537;249;24132;-83
2022/04/05 01:09:53;;;;;;;6.77;2.50;;;4.00;99.90;3.20;97476;;;;568286;249;24108;-83
2022/04/05 01:12:20;;;;;;;2.47;2.20;;;4.00;99.90;3.20;97464;;;;567091;249;25142;-82
2022/04/05 01:14:52;;;;;;;5.67;2.33;;;4.10;99.90;3.20;97462;;;;558579;253;24137;-81
2022/04/05 01:17:16;;;;;;;7.17;2.77;;;4.10;99.90;3.20;97468;;;;567000;253;24116;-80
2022/04/05 01:19:47;;;;;;;4.30;1.67;;;4.10;99.90;3.20;97482;;;;558840;253;24161;-82
2022/04/05 01:22:12;;;;;;;6.50;2.57;;;4.10;99.90;3.20;97467;;;;566985;253;24154;-82
2022/04/05 01:24:40;;;;;;;10.40;2.60;;;4.00;99.90;3.10;97478;;;;559085;252;24167;-83
2022/04/05 01:27:08;;;;;;;1.23;0.97;;;4.00;99.90;3.10;97478;;;;558936;253;24139;-81
2022/04/05 01:29:36;;;;;;;2.10;1.90;;;4.00;99.90;3.10;97485;;;;559071;253;24211;-82
2022/04/05 01:32:03;;;;;;;9.10;1.70;;;3.90;99.90;3.00;97482;;;;558828;253;25184;-82
2022/04/05 01:34:34;;;;;;;6.93;1.60;;;3.90;99.90;3.00;97488;;;;555494;248;24175;-82
2022/04/05 01:37:00;;;;;;;8.00;2.03;;;3.80;99.90;3.00;97480;;;;557632;254;24216;-83
2022/04/05 01:39:31;;;;;;;7.33;2.57;;;3.80;99.90;3.00;97484;;;;566337;249;24158;-81
2022/04/05 01:41:57;;;;;;;8.53;1.73;;;3.80;99.90;2.90;97488;;;;557844;253;24148;-82
2022/04/05 01:44:24;;;;;;;5.77;1.97;;;3.80;99.90;2.90;97487;;;;558475;253;24171;-82
2022/04/05 01:46:56;;;;;;;12.93;2.20;;;3.80;99.90;2.90;97500;;;;559197;253;24131;-81
2022/04/05 01:49:23;;;;;;;8.20;1.73;;;3.80;99.90;2.90;97512;;;;562841;253;24135;-81
2022/04/05 01:51:51;;;;;;;9.87;2.43;;;3.70;99.90;2.80;97500;;;;559365;253;24138;-81
2022/04/05 01:54:16;;;;;;;2.77;1.00;;;3.70;99.90;2.80;97514;;;;560409;253;24132;-83
2022/04/05 01:56:54;;;;;;;5.50;2.20;;;3.70;99.90;2.70;97501;;;;559719;253;24168;-83
2022/04/05 01:59:18;;;;;;;6.00;1.40;;;3.60;99.90;2.60;97518;;;;562820;253;24117;-84
2022/04/05 02:01:46;;;;;;;8.43;1.53;;;3.50;99.90;2.60;97513;;;;555569;253;24131;-81
2022/04/05 02:04:14;;;;;;;11.60;1.77;;;3.50;99.90;2.60;97519;;;;555287;254;24136;-81
2022/04/05 02:06:44;;;;;;;6.57;1.97;;;3.50;99.90;2.60;97509;;;;559503;254;24165;-82
2022/04/05 02:09:13;;;;;;;8.60;2.00;;;3.50;99.90;2.60;97509;;;;566001;249;24113;-81
2022/04/05 02:11:37;;;;;;;9.00;1.90;;;3.50;99.90;2.60;97514;;;;558289;251;24114;-82
2022/04/05 02:14:05;;;;;;;2.67;1.47;;;3.50;99.90;2.50;97509;;;;559776;253;24127;-83
2022/04/05 02:16:33;;;;;;;8.17;1.80;;;3.40;99.90;2.50;97498;;;;559444;253;24113;-81
2022/04/05 02:19:02;;;;;;;6.97;1.63;;;3.40;99.90;2.50;97501;;;;559229;253;25167;-80
2022/04/05 02:21:30;;;;;;;13.97;2.60;;;3.30;99.90;2.40;97502;;;;559048;253;24115;-81
2022/04/05 02:23:58;;;;;;;7.33;1.97;;;3.40;99.90;2.50;97517;;;;559031;253;24117;-83
2022/04/05 02:26:25;;;;;;;7.17;2.03;;;3.40;99.90;2.50;97505;;;;559099;253;24121;-84
2022/04/05 02:28:53;;;;;;;12.57;2.43;;;3.40;99.90;2.50;97519;;;;559083;253;24118;-82
2022/04/05 02:31:25;;;;;;;3.43;1.33;;;3.40;99.90;2.50;97533;;;;558845;253;24142;-82
2022/04/05 02:33:50;;;;;;;3.23;1.10;;;3.30;99.90;2.40;97512;;;;558546;253;24125;-81
2022/04/05 02:36:18;;;;;;;5.87;1.40;;;3.30;99.90;2.40;97515;;;;558705;253;24133;-81
2022/04/05 02:38:46;;;;;;;2.50;1.30;;;3.30;99.90;2.30;97525;;;;558728;253;24098;-82
2022/04/05 02:41:14;;;;;;;6.13;1.37;;;3.10;99.90;2.20;97520;;;;558870;253;24193;-82
2022/04/05 02:43:42;;;;;;;3.37;1.43;;;3.10;99.90;2.10;97529;;;;558692;253;24156;-82
2022/04/05 02:46:11;;;;;;;3.33;1.67;;;3.00;99.90;2.10;97517;;;;558953;253;24196;-83
2022/04/05 02:48:53;;;;;;;7.53;1.63;;;3.00;99.90;2.00;97524;;;;559140;253;24131;-82
2022/04/05 02:51:08;;;;;;;1.93;0.80;;;2.90;99.90;2.00;97525;;;;558067;253;24156;-84
2022/04/05 02:53:35;;;;;;;7.23;1.23;;;2.90;99.90;1.90;97528;;;;559275;253;24104;-81
2022/04/05 02:56:08;;;;;;;6.90;1.87;;;2.80;99.90;1.90;97524;;;;559227;253;24111;-81
2022/04/05 02:58:31;;;;;;;6.33;2.00;;;2.80;99.90;1.90;97525;;;;558489;253;24143;-82
2022/04/05 03:01:04;;;;;;;4.87;2.47;;;2.80;99.90;1.90;97524;;;;558871;253;24106;-82
2022/04/05 03:03:29;;;;;;;11.43;1.83;;;2.90;99.90;1.90;97535;;;;558677;253;24240;-83
2022/04/05 03:05:57;;;;;;;8.00;1.70;;;2.80;99.90;1.90;97537;;;;558553;253;24111;-82
2022/04/05 03:08:29;;;;;;;9.80;1.77;;;2.80;99.90;1.90;97539;;;;558436;253;24141;-83
2022/04/05 03:10:53;;;;;;;7.90;1.83;;;2.80;99.90;2.00;97559;;;;558151;253;24179;-83
2022/04/05 03:13:21;;;;;;;3.27;1.70;;;2.90;99.90;1.90;97543;;;;558477;253;24126;-83
2022/04/05 03:15:49;;;;;;;7.13;1.83;;;2.80;99.90;2.00;97540;;;;559420;253;24114;-83
2022/04/05 03:18:17;;;;;;;11.20;2.33;;;2.90;99.90;1.90;97541;;;;558491;253;24145;-82
2022/04/05 03:20:45;;;;;;;3.53;1.50;;;2.90;99.90;1.90;97536;;;;558632;253;24136;-83
2022/04/05 03:23:13;;;;;;;10.33;2.47;;;2.90;99.90;1.90;97535;;;;558750;251;24163;-82
2022/04/05 03:25:42;;;;;;;10.10;1.73;;;2.90;99.90;2.00;97541;;;;559743;253;24153;-82
2022/04/05 03:28:10;;;;;;;9.57;2.43;;;2.90;99.90;2.00;97547;;;;559409;253;24179;-82
2022/04/05 03:30:38;;;;;;;11.40;2.23;;;2.90;99.90;2.00;97546;;;;559283;253;24134;-82
2022/04/05 03:33:06;;;;;;;7.10;2.20;;;2.90;99.90;2.00;97538;;;;559221;253;24106;-84
2022/04/05 03:35:37;;;;;;;15.90;2.37;;;2.90;99.90;2.00;97532;;;;558866;253;24146;-82
2022/04/05 03:38:02;;;;;;;4.73;1.63;;;2.90;99.90;2.00;97532;;;;558677;253;24183;-83
2022/04/05 03:40:31;;;;;;;11.40;2.20;;;2.90;99.90;1.90;97533;;;;559034;253;24180;-83
2022/04/05 03:43:01;;;;;;;9.17;1.93;;;2.90;99.90;1.90;97538;;;;558695;253;24119;-83
2022/04/05 03:45:29;;;;;;;11.27;2.17;;;2.80;99.90;1.90;97549;;;;558425;253;24144;-82
2022/04/05 03:47:57;;;;;;;7.70;2.40;;;2.80;99.90;1.90;97542;;;;558425;253;24226;-83
2022/04/05 03:50:22;;;;;;;12.03;2.30;;;2.80;99.90;1.80;97534;;;;558217;253;24145;-82
2022/04/05 03:52:50;;;;;;;5.73;2.40;;;2.80;99.90;1.80;97539;;;;558722;253;24219;-82
2022/04/05 03:55:18;;;;;;;11.57;1.60;;;2.70;99.90;1.80;97539;;;;558649;253;24161;-84
2022/04/05 03:57:46;;;;;;;6.83;2.10;;;2.80;99.90;1.80;97536;;;;558840;253;24215;-82
2022/04/05 04:00:14;;;;;;;5.83;1.73;;;2.70;99.90;1.80;97537;;;;558563;253;24164;-83
2022/04/05 04:02:42;;;;;;;3.93;1.73;;;2.70;99.90;1.80;97533;;;;558570;253;24107;-82
2022/04/05 04:05:10;;;;;;;12.17;2.50;;;2.70;99.90;1.80;97537;;;;558491;253;24129;-84
2022/04/05 04:07:38;;;;;;;5.37;1.90;;;2.70;99.90;1.80;97538;;;;558882;253;24137;-82
2022/04/05 04:10:10;;;;;;;6.80;2.17;;;2.70;99.90;1.80;97537;;;;555750;253;24110;-82
2022/04/05 04:12:34;;;;;;;5.20;1.67;;;2.70;99.90;1.80;97538;;;;558317;253;24162;-81
2022/04/05 04:15:06;;;;;;;6.27;1.53;;;2.70;99.90;1.80;97541;;;;559045;253;24105;-82
2022/04/05 04:17:30;;;;;;;5.50;2.10;;;2.70;99.90;1.80;97542;;;;558635;253;24181;-81
2022/04/05 04:19:58;;;;;;;5.27;1.50;;;2.70;99.90;1.80;97556;;;;558967;253;24112;-82
2022/04/05 04:22:29;;;;;;;6.27;1.87;;;2.70;99.90;1.80;97546;;;;559500;253;24105;-82
2022/04/05 04:24:56;;;;;;;2.23;1.40;;;2.70;99.90;1.80;97550;;;;559708;253;24146;-81
2022/04/05 04:27:26;;;;;;;5.37;1.67;;;2.70;99.90;1.80;97551;;;;559894;253;24099;-83
2022/04/05 04:29:50;;;;;;;5.50;2.03;;;2.70;99.90;1.80;97558;;;;559253;253;24129;-81
2022/04/05 04:32:18;;;;;;;8.27;2.27;;;2.70;99.90;1.80;97555;;;;559893;253;24138;-82
2022/04/05 04:34:46;;;;;;;2.90;1.57;;;2.70;99.90;1.80;97559;;;;559103;251;24112;-84
2022/04/05 04:37:14;;;;;;;6.93;1.50;;;2.70;99.90;1.80;97570;;;;560230;252;24142;-83
2022/04/05 04:39:42;;;;;;;5.57;1.80;;;2.70;99.90;1.80;97574;;;;559762;253;24108;-83
2022/04/05 04:42:12;;;;;;;2.17;1.50;;;2.70;99.90;1.80;97574;;;;559631;253;24118;-81
2022/04/05 04:44:41;;;;;;;4.50;1.80;;;2.70;99.90;1.80;97581;;;;559461;253;24115;-82
2022/04/05 04:47:06;;;;;;;6.27;2.60;;;2.70;99.90;1.80;97596;;;;559378;253;24120;-81
2022/04/05 04:49:37;;;;;;;7.70;2.23;;;2.70;99.90;1.80;97599;;;;556054;253;24153;-80
2022/04/05 04:52:06;;;;;;;10.63;2.83;;;2.70;99.90;1.80;97598;;;;558721;253;24134;-82
2022/04/05 04:54:33;;;;;;;5.50;1.60;;;2.70;99.90;1.80;97602;;;;555483;253;24127;-82
2022/04/05 04:56:58;;;;;;;9.23;2.70;;;2.80;99.90;1.90;97617;;;;558979;253;24142;-84
2022/04/05 04:59:26;;;;;;;2.13;1.23;;;2.80;99.90;1.90;97613;;;;558813;253;24137;-83
2022/04/05 05:01:57;;;;;;;8.00;2.07;;;2.80;99.90;1.90;97616;;;;558980;253;24132;-84
2022/04/05 05:04:23;;;;;;;3.53;1.97;;;2.90;99.90;1.90;97610;;;;565644;254;24191;-83
2022/04/05 05:06:51;;;;;;;13.17;2.33;;;2.80;99.90;1.90;97607;;;;567051;249;24118;-85
2022/04/05 05:09:18;;;;;;;2.60;1.63;;;2.80;99.90;1.90;97604;;;;568162;250;24095;-83
2022/04/05 05:11:46;;;;;;;3.87;2.07;;;2.80;99.90;1.90;97614;;;;566972;249;24078;-84
2022/04/05 05:14:14;;;;;;;8.77;2.50;;;2.80;99.90;1.90;97601;;;;567916;250;24132;-83
2022/04/05 05:16:42;;;;;;;9.83;2.20;;;2.80;99.90;1.90;97615;;;;566852;249;24087;-83
2022/04/05 05:19:10;;;;;;;8.43;1.67;;;2.80;99.90;1.90;97615;;;;567934;250;24061;-83
2022/04/05 05:21:40;;;;;;;4.83;2.43;;;2.90;99.90;2.00;97632;;;;566767;249;24089;-81
2022/04/05 05:24:08;;;;;;;8.70;1.90;;;2.90;99.90;2.00;97629;;;;567897;250;24087;-82
2022/04/05 05:26:35;;;;;;;8.50;1.93;;;2.90;99.90;2.00;97638;;;;566778;249;24191;-84
2022/04/05 05:29:03;;;;;;;8.13;1.90;;;2.90;99.90;2.00;97638;;;;567936;250;24072;-83
2022/04/05 05:31:31;;;;;;;6.87;2.53;;;2.90;99.90;2.00;97637;;;;566720;249;24095;-82
2022/04/05 05:34:00;;;;;;;5.50;1.27;;;2.90;99.90;2.00;97656;;;;567985;250;24077;-86
2022/04/05 05:36:28;;;;;;;3.90;2.10;;;2.90;99.90;2.00;97664;;;;566794;249;24082;-84
2022/04/05 05:38:56;;;;;;;7.30;2.23;;;2.90;99.90;1.90;97665;;;;567983;250;24126;-85
2022/04/05 05:41:24;;;;;;;7.07;1.97;;;2.90;99.90;1.90;97666;;;;566749;249;24086;-85
2022/04/05 05:43:52;;;;;;;11.50;3.85;;;2.90;99.90;1.90;97676;;;;563089;250;35313;-82
2022/04/05 05:46:20;;;;;;;14.53;3.37;;;2.80;99.90;1.90;97688;;;;566887;247;24148;-84
2022/04/05 05:48:48;;;;;;;9.30;2.80;;;2.80;99.90;1.90;97693;;;;569243;249;24111;-82
2022/04/05 05:51:16;;;;;;;4.47;1.60;;;2.80;99.90;1.90;97714;;;;567731;249;24123;-83
2022/04/05 05:53:44;;;;;;;6.43;2.17;;;2.80;99.90;1.90;97714;;;;568714;249;24144;-83
2022/04/05 05:56:12;;;;;;;5.60;2.00;;;2.80;99.90;1.80;97710;;;;567126;249;24145;-85
2022/04/05 05:58:40;;;;;;;6.77;2.37;;;2.80;99.90;1.80;97717;;;;568047;249;24084;-86
2022/04/05 06:01:08;;;;;;;4.70;0.83;;;2.70;99.90;1.80;97730;;;;566944;249;24094;-85
2022/04/05 06:03:35;;;;;;;3.80;2.30;;;2.70;99.90;1.80;97728;;;;568029;249;24134;-83
2022/04/05 06:06:03;;;;;;;11.23;2.67;;;2.70;99.90;1.90;97731;;;;566546;249;24093;-83
2022/04/05 06:08:31;;;;;;;3.70;2.30;;;2.80;99.90;2.00;97740;;;;567800;250;24077;-85
2022/04/05 06:11:01;;;;;;;4.43;2.10;;;3.10;99.90;2.20;97731;;;;557319;254;24162;-86
2022/04/05 06:13:28;;;;;;;1.93;1.70;;;3.00;99.90;2.40;97736;;;;566728;249;24102;-86
2022/04/05 06:15:56;;;;;;;8.03;3.03;;;3.40;99.90;2.60;97740;;;;558729;253;24136;-87
2022/04/05 06:18:24;;;;;;;9.47;2.07;;;3.40;99.90;2.80;97750;;;;558892;253;24104;-86
2022/04/05 06:20:53;;;;;;;3.43;1.87;;;3.80;99.90;3.00;97753;;;;558786;253;24161;-86
2022/04/05 06:23:21;;;;;;;6.90;2.80;;;3.80;99.90;3.10;97762;;;;558500;253;24350;-85
2022/04/05 06:25:49;;;;;;;11.07;2.70;;;3.90;99.90;3.30;97768;;;;558574;253;24108;-83
2022/04/05 06:28:18;;;;;;;4.60;2.37;;;4.00;99.90;3.50;97770;;;;558444;253;24164;-84
2022/04/05 06:30:49;;;;;;;2.67;1.90;;;4.30;99.90;3.70;97776;;;;558612;253;24121;-86
2022/04/05 06:33:17;;;;;;;9.33;2.90;;;4.60;99.90;3.80;97788;;;;554975;253;24113;-83
2022/04/05 06:35:50;;;;;;;6.23;2.70;;;4.60;99.90;4.00;97790;;;;558812;253;24168;-86
2022/04/05 06:38:18;;;;;;;7.80;2.50;;;4.80;99.90;4.60;97804;;;;558553;253;24160;-87
2022/04/05 06:40:48;;;;;;;5.80;2.97;;;5.30;99.90;4.70;97818;;;;562398;253;24155;-86
2022/04/05 06:43:20;;;;;;;5.43;2.70;;;5.50;99.90;4.50;97809;;;;555433;253;24126;-81
2022/04/05 06:45:44;;;;;;;6.77;2.50;;;5.40;99.90;4.40;97812;;;;555566;253;24140;-82
2022/04/05 06:48:12;;;;;;;7.17;2.13;;;5.30;99.90;4.50;97820;;;;558795;253;24142;-82
2022/04/05 06:50:40;;;;;;;3.20;2.33;;;5.40;99.90;4.50;97824;;;;558455;253;24134;-81
2022/04/05 06:53:13;;;;;;;6.17;2.37;;;6.00;99.90;5.40;97840;;;;558810;253;24145;-82
2022/04/05 06:55:37;;;;;;;6.30;2.93;;;5.90;99.90;6.00;97824;;;;557371;253;24121;-81
2022/04/05 06:58:05;;;;;;;3.83;2.07;;;6.80;99.90;5.90;97861;;;;559145;251;24113;-82
2022/04/05 07:00:33;;;;;;;6.87;3.23;;;6.80;99.90;5.70;97865;;;;560233;253;24126;-81
2022/04/05 07:03:01;;;;;;;6.67;2.00;;;6.70;99.90;5.70;97860;;;;559785;253;24148;-81
2022/04/05 07:05:29;;;;;;;1.17;1.10;;;6.60;99.90;7.00;97870;;;;559613;253;24113;-81
2022/04/05 07:07:57;;;;;;;4.90;1.20;;;7.50;99.90;9.20;97877;;;;559433;253;24145;-81
2022/04/05 07:10:26;;;;;;;0.70;0.70;;;11.60;99.90;11.50;97901;;;;559357;253;24128;-82
2022/04/05 07:12:56;;;;;;;1.43;0.70;;;11.60;99.90;13.90;97909;;;;558113;254;24151;-82
2022/04/05 07:15:21;;;;;;;0.97;0.57;;;13.90;99.90;15.40;97915;;;;565520;254;24134;-79
2022/04/05 07:17:49;;;;;;;2.83;0.77;;;15.70;99.90;16.70;97929;;;;555641;254;24103;-81
2022/04/05 07:20:18;;;;;;;2.00;0.60;;;17.20;99.90;18.40;97927;;;;572095;251;24090;-80
2022/04/05 07:22:48;;;;;;;2.73;0.77;;;18.70;99.90;19.10;97925;;;;568702;251;24071;-80
2022/04/05 07:25:13;;;;;;;0.77;0.53;;;19.60;98.10;20.20;97939;;;;563247;251;24166;-80
2022/04/05 07:27:44;;;;;;;0.63;0.27;;;20.80;82.60;20.50;97931;;;;563743;250;24081;-79
2022/04/05 07:30:09;;;;;;;0.57;0.40;;;21.30;67.30;21.10;97941;;;;563430;251;24122;-80
2022/04/05 07:32:37;;;;;;;0.50;0.50;;;21.80;60.00;20.90;97946;;;;563279;251;24096;-82
2022/04/05 07:35:08;;;;;;;1.43;0.40;;;21.90;57.60;21.30;97943;;;;562876;251;24089;-81
2022/04/05 07:37:33;;;;;;;0.80;0.50;;;22.10;56.20;21.50;97957;;;;562116;251;24093;-81
2022/04/05 07:40:01;;;;;;;0.30;0.30;;;22.30;55.70;19.70;97954;;;;565242;251;24073;-80
2022/04/05 07:42:32;;;;;;;0.60;0.60;;;19.50;56.80;17.40;97961;;;;562788;251;24104;-81
2022/04/05 07:44:57;;;;;;;0.87;0.60;;;19.40;56.70;17.00;97965;;;;562446;250;23104;-80
2022/04/05 07:47:25;;;;;;;3.07;0.73;;;18.30;59.90;18.60;97953;;;;562744;251;24101;-81
2022/04/05 07:49:53;;;;;;;2.43;0.50;;;19.00;61.90;20.00;97971;;;;562626;251;24084;-79
2022/04/05 07:52:21;;;;;;;0.60;0.60;;;20.40;58.90;21.10;97986;;;;563073;250;24075;-82
2022/04/05 07:54:49;;;;;;;0.20;0.20;;;21.50;54.80;21.70;97992;;;;563046;251;24126;-81
2022/04/05 07:57:17;;;;;;;1.43;0.50;;;22.20;50.30;22.30;97997;;;;563124;251;24135;-80
2022/04/05 07:59:45;;;;;;;1.80;0.60;;;22.80;50.50;23.50;98000;;;;563030;251;24098;-81
2022/04/05 08:02:13;;;;;;;1.00;0.90;;;24.00;46.00;23.00;98011;;;;563013;251;24078;-79
2022/04/05 08:04:41;;;;;;;0.80;0.67;;;24.00;45.90;21.40;98021;;;;563075;251;24078;-80
2022/04/05 08:07:09;;;;;;;1.23;1.00;;;23.10;43.90;18.70;98022;;;;563100;251;24204;-80
2022/04/05 08:09:40;;;;;;;0.70;0.70;;;21.00;46.80;17.00;98026;;;;563309;249;23147;-79
2022/04/05 08:12:06;;;;;;;0.97;0.60;;;18.20;52.10;16.70;98041;;;;572467;251;24096;-79
2022/04/05 08:14:34;;;;;;;0.40;0.40;;;18.10;52.10;15.10;98047;;;;563572;251;24129;-83
2022/04/05 08:17:02;;;;;;;0.43;0.43;;;16.80;55.10;14.00;98035;;;;563504;250;24067;-84
2022/04/05 08:19:29;;;;;;;1.93;0.57;;;15.50;57.00;14.50;98049;;;;563282;247;24144;-82
2022/04/05 08:21:57;;;;;;;0.97;0.57;;;15.40;58.30;15.20;98040;;;;563343;251;24125;-81
2022/04/05 08:24:25;;;;;;;0.93;0.70;;;15.90;57.10;15.80;98055;;;;563163;251;24089;-84
2022/04/05 08:26:53;;;;;;;0.83;0.60;;;16.30;57.40;16.70;98052;;;;563131;251;24066;-83
2022/04/05 08:29:21;;;;;;;0.70;0.60;;;17.30;56.90;16.80;98059;;;;563060;251;24116;-85
2022/04/05 08:31:49;;;;;;;1.80;0.60;;;17.60;55.30;17.40;98066;;;;563083;251;24094;-84
2022/04/05 08:34:18;;;;;;;0.33;0.33;;;18.00;55.30;17.50;98066;;;;563171;251;24165;-82
2022/04/05 08:36:46;;;;;;;0.60;0.60;;;18.10;53.20;17.20;98070;;;;563090;250;24149;-82
2022/04/05 08:39:14;;;;;;;0.50;0.50;;;18.40;52.90;17.70;98080;;;;563560;251;24079;-83
2022/04/05 08:41:43;;;;;;;0.70;0.70;;;18.30;52.80;18.80;98075;;;;563105;251;24089;-82
2022/04/05 08:44:11;;;;;;;0.60;0.60;;;19.30;50.90;19.70;98078;;;;566247;251;35072;-79
2022/04/05 08:46:38;;;;;;;0.40;0.40;;;20.10;49.20;20.30;98094;;;;562881;251;24149;-80
2022/04/05 08:49:07;;;;;;;0.60;0.60;;;21.70;47.00;21.10;98093;;;;562657;251;23113;-80
2022/04/05 08:51:35;;;;;;;0.63;0.60;;;21.60;46.90;20.40;98094;;;;562728;251;24067;-82
2022/04/05 08:54:03;;;;;;;0.40;0.40;;;21.50;46.70;20.70;98112;;;;563088;251;24078;-81
2022/04/05 08:56:31;;;;;;;1.47;0.80;;;21.60;47.30;18.90;98118;;;;563045;251;24140;-80
2022/04/05 08:58:59;;;;;;;0.40;0.40;;;18.60;55.90;16.10;98130;;;;563056;251;24069;-79
2022/04/05 09:01:29;;;;;;;0.20;0.20;;;16.30;62.50;13.90;98128;;;;563148;251;23099;-76
2022/04/05 09:03:58;;;;;;;0.60;0.60;;;16.30;62.60;12.20;98135;;;;563057;251;24088;-80
2022/04/05 09:06:32;;;;;;;0.77;0.70;;;14.50;66.20;11.10;98133;;;;562958;251;24110;-83
2022/04/05 09:09:18;;;;;;;0.70;0.27;;;12.90;67.10;10.20;98152;;;;565330;251;24090;-82
2022/04/05 09:11:46;;;;;;;0.67;0.50;;;10.80;72.40;9.40;98143;;;;563034;251;24131;-78
2022/04/05 09:14:14;;;;;;;1.70;0.50;;;10.70;72.30;8.90;98145;;;;563033;251;24093;-82
2022/04/05 09:16:46;;;;;;;3.27;0.67;;;9.60;77.70;8.50;98135;;;;562720;251;24117;-79
2022/04/05 09:19:14;;;;;;;1.17;0.50;;;9.60;77.40;8.30;98152;;;;562786;251;24078;-83
2022/04/05 09:21:58;;;;;;;1.40;0.43;;;9.30;81.20;8.50;98160;;;;563384;250;24117;-83
2022/04/05 09:24:22;;;;;;;0.43;0.43;;;9.20;81.20;8.60;98154;;;;563634;251;24114;-85
2022/04/05 09:26:50;;;;;;;1.60;0.50;;;9.40;84.80;8.50;98169;;;;564849;251;24096;-81
2022/04/05 09:29:18;;;;;;;0.83;0.60;;;9.30;84.10;8.20;98190;;;;565907;251;24128;-81
2022/04/05 09:31:48;;;;;;;0.20;0.20;;;9.10;86.60;7.30;98194;;;;563438;251;24148;-78
2022/04/05 09:34:16;;;;;;;0.30;0.30;;;8.60;97.90;6.30;98204;;;;563265;251;24085;-83
2022/04/05 09:36:45;;;;;;;0.10;0.10;;;6.80;99.90;5.10;98204;;;;563450;251;24174;-85
2022/04/05 09:39:28;;;;;;;0.20;0.20;;;6.80;99.90;4.40;98188;;;;563207;251;24172;-85
2022/04/05 09:42:02;;;;;;;0.30;0.30;;;6.00;99.90;4.40;98190;;;;571645;251;24172;-81
2022/04/05 09:44:30;;;;;;;0.97;0.57;;;5.70;99.90;5.00;98187;;;;563380;251;24126;-81
2022/04/05 09:47:14;;;;;;;0.53;0.20;;;6.10;99.90;6.00;98198;;;;563540;251;24134;-81
2022/04/05 09:49:40;;;;;;;0.77;0.50;;;6.80;99.90;7.90;98209;;;;565445;251;24157;-81
2022/04/05 09:52:26;;;;;;;0.50;0.50;;;8.60;99.90;8.20;98211;;;;562948;251;24149;-82
2022/04/05 09:54:55;;;;;;;3.40;0.60;;;9.30;99.90;7.80;98210;;;;565174;251;24104;-81
2022/04/05 09:57:30;;;;;;;0.43;0.43;;;9.20;99.90;8.10;98213;;;;562925;251;25248;-84
2022/04/05 10:00:09;;;;;;;2.33;0.70;;;9.30;99.90;9.40;98232;;;;562874;251;24176;-86
2022/04/05 10:02:37;;;;;;;0.73;0.70;;;10.30;99.90;10.80;98227;;;;562560;251;24138;-82
2022/04/05 10:05:06;;;;;;;1.67;0.87;;;11.70;99.90;12.40;98231;;;;562671;251;24074;-82
2022/04/05 10:07:32;;;;;;;0.70;0.70;;;13.30;99.90;13.10;98241;;;;562514;251;24097;-81
2022/04/05 10:10:01;;;;;;;1.83;1.23;;;14.60;99.90;12.90;98240;;;;562439;251;24110;-79
2022/04/05 10:12:29;;;;;;;0.80;0.80;;;14.60;99.90;12.40;98251;;;;562515;251;24076;-81
2022/04/05 10:15:00;;;;;;;0.57;0.57;;;14.30;99.90;11.00;98259;;;;562512;251;24122;-81
2022/04/05 10:17:31;;;;;;;0.57;0.40;;;13.30;99.90;9.70;98255;;;;562335;251;24084;-80
2022/04/05 10:19:57;;;;;;;0.43;0.40;;;11.00;99.90;9.00;98260;;;;562905;251;24138;-80
2022/04/05 10:22:24;;;;;;;0.30;0.30;;;11.00;99.90;8.90;98251;;;;562890;251;24108;-82
2022/04/05 10:24:56;;;;;;;0.40;0.40;;;10.60;99.90;8.70;98251;;;;563013;251;24203;-82
2022/04/05 10:27:20;;;;;;;0.67;0.57;;;10.20;99.90;8.40;98241;;;;562880;251;24158;-84
2022/04/05 10:29:57;;;;;;;0.60;0.60;;;9.80;99.90;8.30;98253;;;;563168;250;24076;-79
2022/04/05 10:32:47;;;;;;;1.70;0.40;;;9.60;99.90;7.90;98257;;;;562890;251;24101;-78
2022/04/05 10:35:15;;;;;;;0.40;0.40;;;9.20;99.90;7.60;98260;;;;562772;251;24118;-78
2022/04/05 10:37:42;;;;;;;0.73;0.40;;;8.90;99.90;7.50;98252;;;;563820;251;24143;-78
2022/04/05 10:40:10;;;;;;;0.87;0.50;;;8.70;99.90;7.70;98239;;;;563609;250;24113;-79
2022/04/05 10:42:51;;;;;;;2.13;0.93;;;8.70;99.90;7.90;98260;;;;563493;251;24125;-80
2022/04/05 10:45:25;;;;;;;0.30;0.30;;;8.90;99.90;8.10;98263;;;;565594;251;24092;-80
2022/04/05 10:48:11;;;;;;;0.73;0.70;;;9.20;99.90;8.30;98270;;;;563371;251;24121;-79
2022/04/05 10:50:38;;;;;;;0.37;0.37;;;9.20;99.90;8.20;98269;;;;563130;251;24103;-79
2022/04/05 10:53:20;;;;;;;0.53;0.40;;;9.20;99.90;8.30;98288;;;;563106;251;24105;-79
2022/04/05 10:56:07;;;;;;;0.70;0.70;;;9.30;99.90;8.30;98287;;;;564879;251;24091;-79
2022/04/05 10:58:34;;;;;;;1.90;0.50;;;9.20;99.90;8.20;98293;;;;563381;251;24110;-80
2022/04/05 11:01:26;;;;;;;1.93;0.63;;;9.20;99.90;7.90;98302;;;;562552;251;24136;-79
2022/04/05 11:04:14;;;;;;;0.30;0.30;;;9.00;99.90;7.70;98296;;;;564279;251;24145;-79
2022/04/05 11:07:01;;;;;;;0.55;0.43;;;8.70;99.90;7.50;98293;;;;557861;251;46080;-78
2022/04/05 11:09:36;;;;;;;0.40;0.40;;;8.50;99.90;7.30;98309;;;;563941;255;25225;-80
2022/04/05 11:12:03;;;;;;;0.50;0.50;;;8.30;99.90;7.30;98307;;;;559826;253;24121;-78
2022/04/05 11:14:52;;;;;;;1.03;0.67;;;8.30;99.90;7.40;98303;;;;555270;253;24126;-80
2022/04/05 11:17:16;;;;;;;1.65;0.65;;;8.40;99.90;7.40;98306;;;;553234;253;35323;-78
2022/04/05 11:19:44;;;;;;;1.00;0.50;;;8.40;99.90;7.30;98311;;;;558304;253;24122;-79
2022/04/05 11:22:21;;;;;;;1.30;0.70;;;8.30;99.90;7.20;98316;;;;565561;254;24175;-80
2022/04/05 11:25:07;;;;;;;0.50;0.47;;;8.10;98.10;7.20;98322;;;;565768;253;24116;-79
2022/04/05 11:27:48;;;;;;;1.03;0.60;;;8.10;98.00;6.90;98319;;;;565941;249;24147;-81
2022/04/05 11:30:36;;;;;;;0.57;0.57;;;7.90;95.00;6.70;98305;;;;559118;253;24148;-80
2022/04/05 11:33:09;;;;;;;1.73;0.80;;;7.70;93.10;6.60;98320;;;;557974;253;24186;-80
2022/04/05 11:35:40;;;;;;;0.83;0.57;;;7.60;89.80;6.50;98328;;;;558373;253;24124;-79
2022/04/05 11:38:05;;;;;;;0.63;0.50;;;7.50;90.60;6.50;98330;;;;554985;253;24154;-79